sensor_id;sensor_type;location;lat;lon;timestamp;temperature;humidity
74171;DHT22;62526;50.948;6.590;2024-03-25T00:01:18;8.50;99.90
74171;DHT22;62526;50.948;6.590;2024-03-25T00:03:45;8.50;99.90
74171;DHT22;62526;50.948;6.590;2024-03-25T00:06:11;8.40;99.90
74171;DHT22;62526;50.948;6.590;2024-03-25T00:08:38;8.50;99.90
74171;DHT22;62526;50.948;6.590;2024-03-25T00:11:04;8.40;99.90
74171;DHT22;62526;50.948;6.590;2024-03-25T00:13:31;8.30;99.90
74171;DHT22;62526;50.948;6.590;2024-03-25T00:15:58;8.30;99.90
74171;DHT22;62526;50.948;6.590;2024-03-25T00:18:24;8.30;99.90
74171;DHT22;62526;50.948;6.590;2024-03-25T00:20:51;8.20;99.90
74171;DHT22;62526;50.948;6.590;2024-03-25T00:23:18;8.30;99.90
74171;DHT22;62526;50.948;6.590;2024-03-25T00:25:44;8.00;99.90
74171;DHT22;62526;50.948;6.590;2024-03-25T00:28:11;8.10;99.90
74171;DHT22;62526;50.948;6.590;2024-03-25T00:30:38;8.40;99.90
74171;DHT22;62526;50.948;6.590;2024-03-25T00:33:04;8.40;99.90
74171;DHT22;62526;50.948;6.590;2024-03-25T00:35:31;8.70;99.90
74171;DHT22;62526;50.948;6.590;2024-03-25T00:37:58;9.00;99.90
74171;DHT22;62526;50.948;6.590;2024-03-25T00:40:24;9.20;99.90
74171;DHT22;62526;50.948;6.590;2024-03-25T00:42:51;9.10;99.80
74171;DHT22;62526;50.948;6.590;2024-03-25T00:45:18;8.90;99.90
74171;DHT22;62526;50.948;6.590;2024-03-25T00:47:44;9.10;99.80
74171;DHT22;62526;50.948;6.590;2024-03-25T00:50:11;9.10;99.50
74171;DHT22;62526;50.948;6.590;2024-03-25T00:52:38;8.90;99.60
74171;DHT22;62526;50.948;6.590;2024-03-25T00:55:04;8.60;99.90
74171;DHT22;62526;50.948;6.590;2024-03-25T00:57:31;8.70;99.90
74171;DHT22;62526;50.948;6.590;2024-03-25T00:59:59;8.90;99.80
74171;DHT22;62526;50.948;6.590;2024-03-25T01:02:25;9.10;99.30
74171;DHT22;62526;50.948;6.590;2024-03-25T01:04:52;9.10;99.20
74171;DHT22;62526;50.948;6.590;2024-03-25T01:07:19;9.00;99.40
74171;DHT22;62526;50.948;6.590;2024-03-25T01:09:46;9.00;99.20
74171;DHT22;62526;50.948;6.590;2024-03-25T01:12:13;9.00;99.10
74171;DHT22;62526;50.948;6.590;2024-03-25T01:14:40;8.80;99.20
74171;DHT22;62526;50.948;6.590;2024-03-25T01:17:06;8.70;99.30
74171;DHT22;62526;50.948;6.590;2024-03-25T01:19:33;8.70;99.60
74171;DHT22;62526;50.948;6.590;2024-03-25T01:21:59;8.90;99.20
74171;DHT22;62526;50.948;6.590;2024-03-25T01:24:26;8.70;99.40
74171;DHT22;62526;50.948;6.590;2024-03-25T01:26:53;8.70;99.50
74171;DHT22;62526;50.948;6.590;2024-03-25T01:29:19;8.80;99.50
74171;DHT22;62526;50.948;6.590;2024-03-25T01:31:47;9.00;99.00
74171;DHT22;62526;50.948;6.590;2024-03-25T01:34:13;9.00;99.00
74171;DHT22;62526;50.948;6.590;2024-03-25T01:36:40;9.10;98.80
74171;DHT22;62526;50.948;6.590;2024-03-25T01:39:07;8.90;98.80
74171;DHT22;62526;50.948;6.590;2024-03-25T01:41:33;9.00;98.80
74171;DHT22;62526;50.948;6.590;2024-03-25T01:44:00;9.20;98.70
74171;DHT22;62526;50.948;6.590;2024-03-25T01:46:27;9.30;98.40
74171;DHT22;62526;50.948;6.590;2024-03-25T01:48:54;9.20;98.40
74171;DHT22;62526;50.948;6.590;2024-03-25T01:51:20;9.30;98.20
74171;DHT22;62526;50.948;6.590;2024-03-25T01:53:47;9.30;98.10
74171;DHT22;62526;50.948;6.590;2024-03-25T01:56:14;9.20;98.00
74171;DHT22;62526;50.948;6.590;2024-03-25T01:58:40;9.10;98.30
74171;DHT22;62526;50.948;6.590;2024-03-25T02:01:07;9.10;98.30
74171;DHT22;62526;50.948;6.590;2024-03-25T02:03:34;9.10;98.40
74171;DHT22;62526;50.948;6.590;2024-03-25T02:06:04;9.20;98.50
74171;DHT22;62526;50.948;6.590;2024-03-25T02:08:30;9.20;98.60
74171;DHT22;62526;50.948;6.590;2024-03-25T02:10:57;9.30;98.40
74171;DHT22;62526;50.948;6.590;2024-03-25T02:13:23;9.20;98.30
74171;DHT22;62526;50.948;6.590;2024-03-25T02:15:50;9.30;98.20
74171;DHT22;62526;50.948;6.590;2024-03-25T02:18:17;9.30;98.20
74171;DHT22;62526;50.948;6.590;2024-03-25T02:20:44;9.40;97.30
74171;DHT22;62526;50.948;6.590;2024-03-25T02:23:11;9.30;97.90
74171;DHT22;62526;50.948;6.590;2024-03-25T02:25:37;9.20;98.10
74171;DHT22;62526;50.948;6.590;2024-03-25T02:28:04;9.20;98.00
74171;DHT22;62526;50.948;6.590;2024-03-25T02:30:30;9.20;97.80
74171;DHT22;62526;50.948;6.590;2024-03-25T02:32:57;9.10;97.90
74171;DHT22;62526;50.948;6.590;2024-03-25T02:35:24;9.00;98.00
74171;DHT22;62526;50.948;6.590;2024-03-25T02:37:50;9.10;98.10
74171;DHT22;62526;50.948;6.590;2024-03-25T02:40:17;9.00;97.90
74171;DHT22;62526;50.948;6.590;2024-03-25T02:42:44;9.00;97.90
74171;DHT22;62526;50.948;6.590;2024-03-25T02:45:13;9.00;98.10
74171;DHT22;62526;50.948;6.590;2024-03-25T02:47:39;8.90;97.90
74171;DHT22;62526;50.948;6.590;2024-03-25T02:50:06;8.90;98.10
74171;DHT22;62526;50.948;6.590;2024-03-25T02:52:33;9.00;97.90
74171;DHT22;62526;50.948;6.590;2024-03-25T02:55:00;9.00;97.90
74171;DHT22;62526;50.948;6.590;2024-03-25T02:57:27;9.00;97.80
74171;DHT22;62526;50.948;6.590;2024-03-25T02:59:54;9.00;97.80
74171;DHT22;62526;50.948;6.590;2024-03-25T03:02:20;9.10;97.80
74171;DHT22;62526;50.948;6.590;2024-03-25T03:04:47;9.10;97.50
74171;DHT22;62526;50.948;6.590;2024-03-25T03:07:14;9.00;97.90
74171;DHT22;62526;50.948;6.590;2024-03-25T03:09:40;8.90;97.60
74171;DHT22;62526;50.948;6.590;2024-03-25T03:12:08;9.20;96.50
74171;DHT22;62526;50.948;6.590;2024-03-25T03:14:34;8.80;97.60
74171;DHT22;62526;50.948;6.590;2024-03-25T03:17:01;8.70;97.80
74171;DHT22;62526;50.948;6.590;2024-03-25T03:19:28;8.70;98.10
74171;DHT22;62526;50.948;6.590;2024-03-25T03:21:54;8.70;98.00
74171;DHT22;62526;50.948;6.590;2024-03-25T03:24:21;8.80;98.00
74171;DHT22;62526;50.948;6.590;2024-03-25T03:26:48;8.80;97.80
74171;DHT22;62526;50.948;6.590;2024-03-25T03:29:16;8.90;97.60
74171;DHT22;62526;50.948;6.590;2024-03-25T03:31:42;8.90;97.60
74171;DHT22;62526;50.948;6.590;2024-03-25T03:34:09;8.90;97.50
74171;DHT22;62526;50.948;6.590;2024-03-25T03:36:37;8.90;97.40
74171;DHT22;62526;50.948;6.590;2024-03-25T03:39:04;8.90;97.30
74171;DHT22;62526;50.948;6.590;2024-03-25T03:41:30;8.80;97.70
74171;DHT22;62526;50.948;6.590;2024-03-25T03:43:57;8.80;97.40
74171;DHT22;62526;50.948;6.590;2024-03-25T03:46:24;8.80;97.70
74171;DHT22;62526;50.948;6.590;2024-03-25T03:48:50;8.80;97.30
74171;DHT22;62526;50.948;6.590;2024-03-25T03:51:17;8.80;97.30
74171;DHT22;62526;50.948;6.590;2024-03-25T03:53:43;8.80;97.30
74171;DHT22;62526;50.948;6.590;2024-03-25T03:56:10;8.70;97.20
74171;DHT22;62526;50.948;6.590;2024-03-25T03:58:37;8.70;97.40
74171;DHT22;62526;50.948;6.590;2024-03-25T04:01:04;8.60;97.40
74171;DHT22;62526;50.948;6.590;2024-03-25T04:03:30;8.60;97.70
74171;DHT22;62526;50.948;6.590;2024-03-25T04:05:57;8.60;97.70
74171;DHT22;62526;50.948;6.590;2024-03-25T04:08:23;8.60;97.70
74171;DHT22;62526;50.948;6.590;2024-03-25T04:10:50;8.60;97.70
74171;DHT22;62526;50.948;6.590;2024-03-25T04:13:17;8.60;97.60
74171;DHT22;62526;50.948;6.590;2024-03-25T04:15:43;8.60;97.40
74171;DHT22;62526;50.948;6.590;2024-03-25T04:18:10;8.60;97.60
74171;DHT22;62526;50.948;6.590;2024-03-25T04:20:37;8.50;97.60
74171;DHT22;62526;50.948;6.590;2024-03-25T04:23:03;8.50;97.70
74171;DHT22;62526;50.948;6.590;2024-03-25T04:25:30;8.40;97.70
74171;DHT22;62526;50.948;6.590;2024-03-25T04:27:57;8.40;97.80
74171;DHT22;62526;50.948;6.590;2024-03-25T04:30:23;8.40;97.10
74171;DHT22;62526;50.948;6.590;2024-03-25T04:32:50;8.40;97.90
74171;DHT22;62526;50.948;6.590;2024-03-25T04:35:17;8.50;97.80
74171;DHT22;62526;50.948;6.590;2024-03-25T04:37:43;8.50;97.80
74171;DHT22;62526;50.948;6.590;2024-03-25T04:40:11;8.50;97.70
74171;DHT22;62526;50.948;6.590;2024-03-25T04:42:39;8.50;97.60
74171;DHT22;62526;50.948;6.590;2024-03-25T04:45:06;8.50;97.50
74171;DHT22;62526;50.948;6.590;2024-03-25T04:47:32;8.50;97.40
74171;DHT22;62526;50.948;6.590;2024-03-25T04:49:59;8.50;97.50
74171;DHT22;62526;50.948;6.590;2024-03-25T04:52:26;8.50;97.40
74171;DHT22;62526;50.948;6.590;2024-03-25T04:54:52;8.40;97.30
74171;DHT22;62526;50.948;6.590;2024-03-25T04:57:19;8.40;97.60
74171;DHT22;62526;50.948;6.590;2024-03-25T04:59:45;8.40;97.20
74171;DHT22;62526;50.948;6.590;2024-03-25T05:02:13;8.90;96.50
74171;DHT22;62526;50.948;6.590;2024-03-25T05:04:39;8.30;97.00
74171;DHT22;62526;50.948;6.590;2024-03-25T05:07:06;8.30;96.90
74171;DHT22;62526;50.948;6.590;2024-03-25T05:09:33;8.20;96.80
74171;DHT22;62526;50.948;6.590;2024-03-25T05:11:59;8.20;96.80
74171;DHT22;62526;50.948;6.590;2024-03-25T05:14:26;8.10;96.90
74171;DHT22;62526;50.948;6.590;2024-03-25T05:16:53;8.10;96.80
74171;DHT22;62526;50.948;6.590;2024-03-25T05:19:19;7.90;96.80
74171;DHT22;62526;50.948;6.590;2024-03-25T05:21:47;7.80;97.10
74171;DHT22;62526;50.948;6.590;2024-03-25T05:24:14;7.70;97.20
74171;DHT22;62526;50.948;6.590;2024-03-25T05:26:41;7.70;97.10
74171;DHT22;62526;50.948;6.590;2024-03-25T05:29:07;7.70;97.20
74171;DHT22;62526;50.948;6.590;2024-03-25T05:31:34;7.70;97.10
74171;DHT22;62526;50.948;6.590;2024-03-25T05:34:00;7.70;97.10
74171;DHT22;62526;50.948;6.590;2024-03-25T05:36:27;7.70;97.20
74171;DHT22;62526;50.948;6.590;2024-03-25T05:38:54;7.70;97.10
74171;DHT22;62526;50.948;6.590;2024-03-25T05:41:20;7.70;97.20
74171;DHT22;62526;50.948;6.590;2024-03-25T05:43:47;7.60;97.20
74171;DHT22;62526;50.948;6.590;2024-03-25T05:46:14;7.60;97.40
74171;DHT22;62526;50.948;6.590;2024-03-25T05:48:42;7.50;97.30
74171;DHT22;62526;50.948;6.590;2024-03-25T05:51:08;7.50;97.30
74171;DHT22;62526;50.948;6.590;2024-03-25T05:53:35;7.50;97.50
74171;DHT22;62526;50.948;6.590;2024-03-25T05:56:02;7.60;97.50
74171;DHT22;62526;50.948;6.590;2024-03-25T05:58:28;7.60;97.50
74171;DHT22;62526;50.948;6.590;2024-03-25T06:00:55;7.50;97.60
74171;DHT22;62526;50.948;6.590;2024-03-25T06:03:22;7.60;97.80
74171;DHT22;62526;50.948;6.590;2024-03-25T06:05:48;7.60;97.50
74171;DHT22;62526;50.948;6.590;2024-03-25T06:08:15;7.60;97.60
74171;DHT22;62526;50.948;6.590;2024-03-25T06:10:42;7.60;97.60
74171;DHT22;62526;50.948;6.590;2024-03-25T06:13:09;7.60;97.60
74171;DHT22;62526;50.948;6.590;2024-03-25T06:15:36;7.60;97.60
74171;DHT22;62526;50.948;6.590;2024-03-25T06:18:03;7.70;97.60
74171;DHT22;62526;50.948;6.590;2024-03-25T06:20:29;7.70;97.70
74171;DHT22;62526;50.948;6.590;2024-03-25T06:22:58;7.70;97.70
74171;DHT22;62526;50.948;6.590;2024-03-25T06:25:24;7.80;97.70
74171;DHT22;62526;50.948;6.590;2024-03-25T06:27:51;7.80;97.80
74171;DHT22;62526;50.948;6.590;2024-03-25T06:30:19;7.90;97.80
74171;DHT22;62526;50.948;6.590;2024-03-25T06:32:51;7.90;98.00
74171;DHT22;62526;50.948;6.590;2024-03-25T06:35:23;8.00;98.10
74171;DHT22;62526;50.948;6.590;2024-03-25T06:37:50;8.10;98.10
74171;DHT22;62526;50.948;6.590;2024-03-25T06:40:16;8.20;98.10
74171;DHT22;62526;50.948;6.590;2024-03-25T06:42:43;8.30;98.20
74171;DHT22;62526;50.948;6.590;2024-03-25T06:45:10;8.40;98.20
74171;DHT22;62526;50.948;6.590;2024-03-25T06:47:36;8.40;98.30
74171;DHT22;62526;50.948;6.590;2024-03-25T06:50:03;8.50;98.40
74171;DHT22;62526;50.948;6.590;2024-03-25T06:52:30;8.60;98.40
74171;DHT22;62526;50.948;6.590;2024-03-25T06:54:58;8.60;98.40
74171;DHT22;62526;50.948;6.590;2024-03-25T06:57:25;8.70;98.30
74171;DHT22;62526;50.948;6.590;2024-03-25T06:59:51;8.80;98.30
74171;DHT22;62526;50.948;6.590;2024-03-25T07:02:18;8.90;98.40
74171;DHT22;62526;50.948;6.590;2024-03-25T07:04:45;9.00;98.40
74171;DHT22;62526;50.948;6.590;2024-03-25T07:07:12;9.10;98.10
74171;DHT22;62526;50.948;6.590;2024-03-25T07:09:40;9.20;98.10
74171;DHT22;62526;50.948;6.590;2024-03-25T07:12:07;9.20;98.00
74171;DHT22;62526;50.948;6.590;2024-03-25T07:14:33;9.20;98.10
74171;DHT22;62526;50.948;6.590;2024-03-25T07:17:00;9.30;98.10
74171;DHT22;62526;50.948;6.590;2024-03-25T07:19:27;9.40;97.80
74171;DHT22;62526;50.948;6.590;2024-03-25T07:21:53;9.50;97.80
74171;DHT22;62526;50.948;6.590;2024-03-25T07:24:20;9.60;97.60
74171;DHT22;62526;50.948;6.590;2024-03-25T07:26:47;9.70;96.90
74171;DHT22;62526;50.948;6.590;2024-03-25T07:29:27;9.70;96.80
74171;DHT22;62526;50.948;6.590;2024-03-25T07:32:14;9.80;96.90
74171;DHT22;62526;50.948;6.590;2024-03-25T07:35:13;9.80;96.70
74171;DHT22;62526;50.948;6.590;2024-03-25T07:37:47;9.80;96.70
74171;DHT22;62526;50.948;6.590;2024-03-25T07:40:14;9.90;96.60
74171;DHT22;62526;50.948;6.590;2024-03-25T07:42:41;10.10;96.10
74171;DHT22;62526;50.948;6.590;2024-03-25T07:45:08;10.20;95.90
74171;DHT22;62526;50.948;6.590;2024-03-25T07:47:35;10.30;96.10
74171;DHT22;62526;50.948;6.590;2024-03-25T07:50:01;10.40;96.30
74171;DHT22;62526;50.948;6.590;2024-03-25T07:52:28;10.20;95.80
74171;DHT22;62526;50.948;6.590;2024-03-25T07:54:55;10.70;96.20
74171;DHT22;62526;50.948;6.590;2024-03-25T07:57:21;10.80;96.30
74171;DHT22;62526;50.948;6.590;2024-03-25T07:59:48;10.80;95.90
74171;DHT22;62526;50.948;6.590;2024-03-25T08:02:15;10.90;95.90
74171;DHT22;62526;50.948;6.590;2024-03-25T08:04:42;10.90;95.90
74171;DHT22;62526;50.948;6.590;2024-03-25T08:07:09;11.10;96.10
74171;DHT22;62526;50.948;6.590;2024-03-25T08:09:35;11.10;96.00
74171;DHT22;62526;50.948;6.590;2024-03-25T08:12:02;11.20;95.80
74171;DHT22;62526;50.948;6.590;2024-03-25T08:14:29;11.20;96.10
74171;DHT22;62526;50.948;6.590;2024-03-25T08:16:56;11.30;95.70
74171;DHT22;62526;50.948;6.590;2024-03-25T08:19:22;11.30;95.30
74171;DHT22;62526;50.948;6.590;2024-03-25T08:21:49;11.40;95.40
74171;DHT22;62526;50.948;6.590;2024-03-25T08:24:16;11.60;95.40
74171;DHT22;62526;50.948;6.590;2024-03-25T08:26:43;11.60;95.30
74171;DHT22;62526;50.948;6.590;2024-03-25T08:29:10;11.70;95.40
74171;DHT22;62526;50.948;6.590;2024-03-25T08:31:36;11.80;95.10
74171;DHT22;62526;50.948;6.590;2024-03-25T08:34:03;11.90;94.90
74171;DHT22;62526;50.948;6.590;2024-03-25T08:36:30;11.90;94.70
74171;DHT22;62526;50.948;6.590;2024-03-25T08:38:56;12.00;94.80
74171;DHT22;62526;50.948;6.590;2024-03-25T08:41:23;12.00;94.60
74171;DHT22;62526;50.948;6.590;2024-03-25T08:43:50;12.10;94.70
74171;DHT22;62526;50.948;6.590;2024-03-25T08:46:17;12.20;94.70
74171;DHT22;62526;50.948;6.590;2024-03-25T08:48:45;12.30;94.50
74171;DHT22;62526;50.948;6.590;2024-03-25T08:51:12;12.30;94.50
74171;DHT22;62526;50.948;6.590;2024-03-25T08:53:39;12.40;94.40
74171;DHT22;62526;50.948;6.590;2024-03-25T08:56:05;12.40;94.30
74171;DHT22;62526;50.948;6.590;2024-03-25T08:58:32;12.40;94.20
74171;DHT22;62526;50.948;6.590;2024-03-25T09:00:58;12.40;94.00
74171;DHT22;62526;50.948;6.590;2024-03-25T09:03:25;12.50;94.60
74171;DHT22;62526;50.948;6.590;2024-03-25T09:05:53;12.60;93.70
74171;DHT22;62526;50.948;6.590;2024-03-25T09:08:19;12.60;93.70
74171;DHT22;62526;50.948;6.590;2024-03-25T09:10:46;12.70;93.90
74171;DHT22;62526;50.948;6.590;2024-03-25T09:13:19;12.80;94.30
74171;DHT22;62526;50.948;6.590;2024-03-25T09:15:45;12.90;93.70
74171;DHT22;62526;50.948;6.590;2024-03-25T09:18:12;13.00;93.20
74171;DHT22;62526;50.948;6.590;2024-03-25T09:20:38;13.10;93.20
74171;DHT22;62526;50.948;6.590;2024-03-25T09:23:05;13.20;93.50
74171;DHT22;62526;50.948;6.590;2024-03-25T09:25:32;13.30;93.90
74171;DHT22;62526;50.948;6.590;2024-03-25T09:27:58;13.30;93.40
74171;DHT22;62526;50.948;6.590;2024-03-25T09:30:25;13.30;93.00
74171;DHT22;62526;50.948;6.590;2024-03-25T09:32:52;13.40;93.30
74171;DHT22;62526;50.948;6.590;2024-03-25T09:35:18;13.50;93.20
74171;DHT22;62526;50.948;6.590;2024-03-25T09:37:45;13.50;93.10
74171;DHT22;62526;50.948;6.590;2024-03-25T09:40:12;13.70;92.60
74171;DHT22;62526;50.948;6.590;2024-03-25T09:42:52;13.80;92.20
74171;DHT22;62526;50.948;6.590;2024-03-25T09:45:16;13.80;92.20
74171;DHT22;62526;50.948;6.590;2024-03-25T09:47:46;13.80;91.30
74171;DHT22;62526;50.948;6.590;2024-03-25T09:50:14;13.90;91.40
74171;DHT22;62526;50.948;6.590;2024-03-25T09:52:41;13.90;92.00
74171;DHT22;62526;50.948;6.590;2024-03-25T09:55:08;13.90;92.00
74171;DHT22;62526;50.948;6.590;2024-03-25T09:57:34;14.00;91.60
74171;DHT22;62526;50.948;6.590;2024-03-25T10:00:01;14.00;92.20
74171;DHT22;62526;50.948;6.590;2024-03-25T10:02:28;14.10;91.80
74171;DHT22;62526;50.948;6.590;2024-03-25T10:04:55;14.20;92.10
74171;DHT22;62526;50.948;6.590;2024-03-25T10:07:22;14.60;90.50
74171;DHT22;62526;50.948;6.590;2024-03-25T10:09:49;14.60;90.60
74171;DHT22;62526;50.948;6.590;2024-03-25T10:12:15;14.70;90.60
74171;DHT22;62526;50.948;6.590;2024-03-25T10:14:42;14.70;90.10
74171;DHT22;62526;50.948;6.590;2024-03-25T10:17:09;14.60;90.40
74171;DHT22;62526;50.948;6.590;2024-03-25T10:19:35;14.80;90.50
74171;DHT22;62526;50.948;6.590;2024-03-25T10:22:05;14.90;90.60
74171;DHT22;62526;50.948;6.590;2024-03-25T10:24:38;15.10;89.50
74171;DHT22;62526;50.948;6.590;2024-03-25T10:27:04;15.20;88.40
74171;DHT22;62526;50.948;6.590;2024-03-25T10:29:31;15.10;88.50
74171;DHT22;62526;50.948;6.590;2024-03-25T10:31:59;15.30;88.20
74171;DHT22;62526;50.948;6.590;2024-03-25T10:34:25;15.50;85.80
74171;DHT22;62526;50.948;6.590;2024-03-25T10:36:56;15.80;84.10
74171;DHT22;62526;50.948;6.590;2024-03-25T10:39:20;15.70;84.00
74171;DHT22;62526;50.948;6.590;2024-03-25T10:41:47;15.80;81.50
74171;DHT22;62526;50.948;6.590;2024-03-25T10:44:14;15.80;79.00
74171;DHT22;62526;50.948;6.590;2024-03-25T10:46:40;15.80;78.70
74171;DHT22;62526;50.948;6.590;2024-03-25T10:51:53;16.00;79.90
74171;DHT22;62526;50.948;6.590;2024-03-25T10:54:20;16.00;78.80
74171;DHT22;62526;50.948;6.590;2024-03-25T10:56:46;15.90;77.10
74171;DHT22;62526;50.948;6.590;2024-03-25T10:59:13;16.00;77.60
74171;DHT22;62526;50.948;6.590;2024-03-25T11:01:40;16.10;77.50
74171;DHT22;62526;50.948;6.590;2024-03-25T11:04:06;16.00;77.10
74171;DHT22;62526;50.948;6.590;2024-03-25T11:06:33;16.10;74.90
74171;DHT22;62526;50.948;6.590;2024-03-25T11:09:00;16.10;75.80
74171;DHT22;62526;50.948;6.590;2024-03-25T11:11:32;16.30;75.00
74171;DHT22;62526;50.948;6.590;2024-03-25T11:13:58;16.40;74.50
74171;DHT22;62526;50.948;6.590;2024-03-25T11:16:28;16.50;76.90
74171;DHT22;62526;50.948;6.590;2024-03-25T11:18:53;16.60;75.10
74171;DHT22;62526;50.948;6.590;2024-03-25T11:21:24;16.70;76.80
74171;DHT22;62526;50.948;6.590;2024-03-25T11:23:46;16.70;75.00
74171;DHT22;62526;50.948;6.590;2024-03-25T11:26:19;16.80;75.00
74171;DHT22;62526;50.948;6.590;2024-03-25T11:28:45;16.80;74.70
74171;DHT22;62526;50.948;6.590;2024-03-25T11:31:11;17.00;74.70
74171;DHT22;62526;50.948;6.590;2024-03-25T11:33:39;17.20;71.80
74171;DHT22;62526;50.948;6.590;2024-03-25T11:36:10;17.10;71.20
74171;DHT22;62526;50.948;6.590;2024-03-25T11:38:37;17.10;71.40
74171;DHT22;62526;50.948;6.590;2024-03-25T11:41:04;17.20;70.40
74171;DHT22;62526;50.948;6.590;2024-03-25T11:43:30;17.20;70.70
74171;DHT22;62526;50.948;6.590;2024-03-25T11:45:57;17.40;70.80
74171;DHT22;62526;50.948;6.590;2024-03-25T11:48:24;17.60;73.00
74171;DHT22;62526;50.948;6.590;2024-03-25T11:50:50;17.70;70.60
74171;DHT22;62526;50.948;6.590;2024-03-25T11:53:17;17.60;70.50
74171;DHT22;62526;50.948;6.590;2024-03-25T11:55:46;17.70;71.70
74171;DHT22;62526;50.948;6.590;2024-03-25T11:58:13;17.70;69.70
74171;DHT22;62526;50.948;6.590;2024-03-25T12:00:44;17.80;69.00
74171;DHT22;62526;50.948;6.590;2024-03-25T12:03:10;18.00;67.30
74171;DHT22;62526;50.948;6.590;2024-03-25T12:05:37;18.00;69.00
74171;DHT22;62526;50.948;6.590;2024-03-25T12:08:03;17.90;68.00
74171;DHT22;62526;50.948;6.590;2024-03-25T12:10:30;18.00;67.50
74171;DHT22;62526;50.948;6.590;2024-03-25T12:13:02;18.00;64.30
74171;DHT22;62526;50.948;6.590;2024-03-25T12:15:29;17.80;65.50
74171;DHT22;62526;50.948;6.590;2024-03-25T12:17:56;17.90;66.50
74171;DHT22;62526;50.948;6.590;2024-03-25T12:20:23;18.00;66.30
74171;DHT22;62526;50.948;6.590;2024-03-25T12:22:49;18.10;64.90
74171;DHT22;62526;50.948;6.590;2024-03-25T12:25:18;18.30;65.90
74171;DHT22;62526;50.948;6.590;2024-03-25T12:27:45;18.40;65.30
74171;DHT22;62526;50.948;6.590;2024-03-25T12:30:10;18.70;62.10
74171;DHT22;62526;50.948;6.590;2024-03-25T12:32:39;18.60;63.10
74171;DHT22;62526;50.948;6.590;2024-03-25T12:35:07;18.70;64.00
74171;DHT22;62526;50.948;6.590;2024-03-25T12:37:35;19.40;63.40
74171;DHT22;62526;50.948;6.590;2024-03-25T12:40:01;19.30;64.00
74171;DHT22;62526;50.948;6.590;2024-03-25T12:42:29;19.50;61.20
74171;DHT22;62526;50.948;6.590;2024-03-25T12:44:57;19.50;59.50
74171;DHT22;62526;50.948;6.590;2024-03-25T12:47:24;19.50;60.00
74171;DHT22;62526;50.948;6.590;2024-03-25T12:49:52;20.20;60.50
74171;DHT22;62526;50.948;6.590;2024-03-25T12:52:19;20.40;60.30
74171;DHT22;62526;50.948;6.590;2024-03-25T12:54:47;20.50;58.80
74171;DHT22;62526;50.948;6.590;2024-03-25T12:57:14;20.60;60.20
74171;DHT22;62526;50.948;6.590;2024-03-25T12:59:42;20.50;60.20
74171;DHT22;62526;50.948;6.590;2024-03-25T13:02:10;20.50;60.00
74171;DHT22;62526;50.948;6.590;2024-03-25T13:04:38;20.40;58.40
74171;DHT22;62526;50.948;6.590;2024-03-25T13:07:06;20.10;58.60
74171;DHT22;62526;50.948;6.590;2024-03-25T13:09:35;19.80;59.10
74171;DHT22;62526;50.948;6.590;2024-03-25T13:12:03;19.60;59.20
74171;DHT22;62526;50.948;6.590;2024-03-25T13:14:31;19.60;60.20
74171;DHT22;62526;50.948;6.590;2024-03-25T13:16:58;20.20;59.30
74171;DHT22;62526;50.948;6.590;2024-03-25T13:19:25;20.50;57.80
74171;DHT22;62526;50.948;6.590;2024-03-25T13:21:55;20.80;59.80
74171;DHT22;62526;50.948;6.590;2024-03-25T13:24:20;21.30;59.00
74171;DHT22;62526;50.948;6.590;2024-03-25T13:26:47;22.00;57.10
74171;DHT22;62526;50.948;6.590;2024-03-25T13:29:14;22.40;55.90
74171;DHT22;62526;50.948;6.590;2024-03-25T13:31:41;22.30;55.60
74171;DHT22;62526;50.948;6.590;2024-03-25T13:34:08;21.40;57.60
74171;DHT22;62526;50.948;6.590;2024-03-25T13:36:35;21.10;57.70
74171;DHT22;62526;50.948;6.590;2024-03-25T13:39:01;21.70;57.40
74171;DHT22;62526;50.948;6.590;2024-03-25T13:41:29;22.60;55.30
74171;DHT22;62526;50.948;6.590;2024-03-25T13:43:57;22.70;54.70
74171;DHT22;62526;50.948;6.590;2024-03-25T13:46:25;22.20;55.00
74171;DHT22;62526;50.948;6.590;2024-03-25T13:48:52;22.30;55.90
74171;DHT22;62526;50.948;6.590;2024-03-25T13:51:19;22.00;56.10
74171;DHT22;62526;50.948;6.590;2024-03-25T13:53:46;21.70;56.20
74171;DHT22;62526;50.948;6.590;2024-03-25T13:56:14;22.00;55.50
74171;DHT22;62526;50.948;6.590;2024-03-25T13:58:41;22.50;55.50
74171;DHT22;62526;50.948;6.590;2024-03-25T14:01:08;22.60;54.40
74171;DHT22;62526;50.948;6.590;2024-03-25T14:03:36;22.50;55.60
74171;DHT22;62526;50.948;6.590;2024-03-25T14:06:04;23.20;54.50
74171;DHT22;62526;50.948;6.590;2024-03-25T14:08:31;23.80;53.10
74171;DHT22;62526;50.948;6.590;2024-03-25T14:10:59;24.40;53.00
74171;DHT22;62526;50.948;6.590;2024-03-25T14:13:26;25.00;53.60
74171;DHT22;62526;50.948;6.590;2024-03-25T14:15:53;25.30;52.50
74171;DHT22;62526;50.948;6.590;2024-03-25T14:18:21;25.50;51.40
74171;DHT22;62526;50.948;6.590;2024-03-25T14:20:50;25.80;50.30
74171;DHT22;62526;50.948;6.590;2024-03-25T14:23:15;26.10;50.60
74171;DHT22;62526;50.948;6.590;2024-03-25T14:25:43;26.20;48.10
74171;DHT22;62526;50.948;6.590;2024-03-25T14:28:11;26.30;48.10
74171;DHT22;62526;50.948;6.590;2024-03-25T14:30:39;26.40;48.80
74171;DHT22;62526;50.948;6.590;2024-03-25T14:33:06;26.60;46.30
74171;DHT22;62526;50.948;6.590;2024-03-25T14:35:33;26.30;46.90
74171;DHT22;62526;50.948;6.590;2024-03-25T14:38:00;26.50;47.80
74171;DHT22;62526;50.948;6.590;2024-03-25T14:40:28;26.90;45.50
74171;DHT22;62526;50.948;6.590;2024-03-25T14:42:55;26.60;46.40
74171;DHT22;62526;50.948;6.590;2024-03-25T14:45:23;26.80;46.70
74171;DHT22;62526;50.948;6.590;2024-03-25T14:47:50;27.20;44.20
74171;DHT22;62526;50.948;6.590;2024-03-25T14:50:17;27.80;43.40
74171;DHT22;62526;50.948;6.590;2024-03-25T14:52:44;28.20;43.20
74171;DHT22;62526;50.948;6.590;2024-03-25T14:55:12;27.90;44.40
74171;DHT22;62526;50.948;6.590;2024-03-25T14:57:39;27.70;44.40
74171;DHT22;62526;50.948;6.590;2024-03-25T15:00:07;27.30;45.00
74171;DHT22;62526;50.948;6.590;2024-03-25T15:02:36;27.20;43.90
74171;DHT22;62526;50.948;6.590;2024-03-25T15:05:04;26.90;44.80
74171;DHT22;62526;50.948;6.590;2024-03-25T15:07:32;26.70;44.80
74171;DHT22;62526;50.948;6.590;2024-03-25T15:09:59;26.90;44.90
74171;DHT22;62526;50.948;6.590;2024-03-25T15:12:26;26.60;44.60
74171;DHT22;62526;50.948;6.590;2024-03-25T15:14:54;25.90;44.90
74171;DHT22;62526;50.948;6.590;2024-03-25T15:17:22;25.80;45.60
74171;DHT22;62526;50.948;6.590;2024-03-25T15:19:49;26.10;45.10
74171;DHT22;62526;50.948;6.590;2024-03-25T15:22:17;26.40;44.40
74171;DHT22;62526;50.948;6.590;2024-03-25T15:24:44;26.70;44.40
74171;DHT22;62526;50.948;6.590;2024-03-25T15:27:11;26.60;43.50
74171;DHT22;62526;50.948;6.590;2024-03-25T15:29:38;26.60;43.50
74171;DHT22;62526;50.948;6.590;2024-03-25T15:32:05;26.50;43.30
74171;DHT22;62526;50.948;6.590;2024-03-25T15:34:32;26.50;43.00
74171;DHT22;62526;50.948;6.590;2024-03-25T15:36:59;26.50;42.80
74171;DHT22;62526;50.948;6.590;2024-03-25T15:39:27;28.20;45.20